Time;durP1;ratioP1;P1;durP2;ratioP2;P2;SDS_P1;SDS_P2;PMS_P1;PMS_P2;Temp;Humidity;BMP_temperature;BMP_pressure;BME280_temperature;BME280_humidity;BME280_pressure;Samples;Min_cycle;Max_cycle;Signal;HPM_P1;HPM_P2
2021/06/29 00:00:07;;;;;;;0.40;0.30;;;17.60;99.90;;;;;;5111505;28;20382;-79
2021/06/29 00:02:32;;;;;;;0.40;0.20;;;17.10;99.90;;;;;;5111269;28;20376;-80
2021/06/29 00:04:58;;;;;;;0.40;0.30;;;17.90;99.90;;;;;;5101649;28;20394;-79
2021/06/29 00:07:24;;;;;;;0.40;0.20;;;17.90;99.90;;;;;;5072739;28;20466;-79
2021/06/29 00:09:49;;;;;;;0.40;0.20;;;17.00;99.90;;;;;;5111109;28;20396;-79
2021/06/29 00:12:15;;;;;;;0.40;0.20;;;18.00;99.90;;;;;;5102992;28;20389;-79
2021/06/29 00:14:41;;;;;;;0.40;0.27;;;17.90;99.90;;;;;;5098382;28;20387;-79
2021/06/29 00:17:08;;;;;;;0.40;0.20;;;18.20;99.90;;;;;;5110738;28;20388;-78
2021/06/29 00:19:34;;;;;;;0.40;0.30;;;17.20;99.90;;;;;;5103442;28;20386;-78
2021/06/29 00:22:00;;;;;;;0.40;0.20;;;17.10;99.90;;;;;;5092301;28;20393;-78
2021/06/29 00:24:25;;;;;;;0.40;0.20;;;16.90;99.90;;;;;;5111216;28;20373;-77
2021/06/29 00:26:51;;;;;;;0.40;0.30;;;17.30;99.90;;;;;;5095071;28;20416;-78
2021/06/29 00:29:17;;;;;;;0.40;0.30;;;17.80;99.90;;;;;;5095883;28;20933;-78
2021/06/29 00:31:42;;;;;;;0.40;0.20;;;18.00;99.90;;;;;;5109808;28;20380;-78
2021/06/29 00:34:08;;;;;;;0.40;0.20;;;17.10;99.90;;;;;;5099947;28;20389;-77
2021/06/29 00:36:34;;;;;;;0.40;0.30;;;17.20;99.90;;;;;;5101302;28;20394;-77
2021/06/29 00:38:59;;;;;;;0.40;0.30;;;17.10;99.90;;;;;;5091263;28;20390;-77
2021/06/29 00:41:25;;;;;;;0.40;0.25;;;17.00;99.90;;;;;;5110592;28;20381;-77
2021/06/29 00:43:52;;;;;;;0.40;0.40;;;17.30;99.90;;;;;;5082597;28;20406;-77
2021/06/29 00:46:19;;;;;;;0.40;0.40;;;16.90;99.90;;;;;;5092594;28;20910;-77
2021/06/29 00:48:46;;;;;;;0.40;0.20;;;16.80;99.90;;;;;;5110565;28;20384;-77
2021/06/29 00:51:17;;;;;;;0.40;0.20;;;17.00;99.90;;;;;;5082490;28;20398;-77
2021/06/29 00:53:44;;;;;;;0.40;0.30;;;17.20;99.90;;;;;;5086647;28;20463;-78
2021/06/29 00:56:13;;;;;;;0.40;0.30;;;17.00;99.90;;;;;;5111398;28;20388;-77
2021/06/29 00:58:44;;;;;;;0.40;0.20;;;17.10;99.90;;;;;;5091692;28;20869;-77
2021/06/29 01:01:10;;;;;;;0.40;0.20;;;16.80;99.90;;;;;;5090988;28;20370;-77
2021/06/29 01:03:39;;;;;;;0.40;0.20;;;17.00;99.90;;;;;;5089754;28;20377;-77
2021/06/29 01:06:07;;;;;;;0.40;0.20;;;16.90;99.90;;;;;;5090593;28;20397;-77
2021/06/29 01:08:32;;;;;;;0.40;0.20;;;17.10;99.90;;;;;;5104222;28;20473;-78
2021/06/29 01:10:59;;;;;;;0.40;0.20;;;16.60;99.90;;;;;;5088231;28;20857;-77
2021/06/29 01:13:44;;;;;;;0.40;0.20;;;16.80;99.90;;;;;;5090318;28;20406;-77
2021/06/29 01:16:11;;;;;;;0.40;0.20;;;17.00;99.90;;;;;;5089290;28;20795;-77
2021/06/29 01:18:38;;;;;;;0.40;0.30;;;17.00;99.90;;;;;;5105287;28;20741;-77
2021/06/29 01:21:06;;;;;;;0.40;0.20;;;16.80;99.90;;;;;;5072329;28;20389;-78
2021/06/29 01:23:32;;;;;;;0.40;0.30;;;16.80;99.90;;;;;;5107276;28;20392;-78
2021/06/29 01:26:32;;;;;;;0.40;0.20;;;16.90;99.90;;;;;;5102567;28;20502;-78
2021/06/29 01:31:21;;;;;;;0.40;0.20;;;16.80;99.90;;;;;;5110730;28;20376;-77
2021/06/29 01:33:48;;;;;;;0.40;0.30;;;17.00;99.90;;;;;;5093447;28;20394;-77
2021/06/29 01:36:21;;;;;;;0.40;0.30;;;16.90;99.90;;;;;;5098003;28;20392;-78
2021/06/29 01:38:47;;;;;;;0.40;0.20;;;16.90;99.90;;;;;;5108095;28;20848;-78
2021/06/29 01:41:16;;;;;;;0.40;0.20;;;16.80;99.90;;;;;;5093151;28;20780;-77
2021/06/29 01:44:29;;;;;;;0.40;0.20;;;16.90;99.90;;;;;;5075756;28;20890;-78
2021/06/29 01:46:31;;;;;;;0.40;0.20;;;17.00;99.90;;;;;;5092305;28;20416;-78
2021/06/29 01:48:57;;;;;;;0.40;0.30;;;17.00;99.90;;;;;;5108945;28;20394;-78
2021/06/29 01:51:23;;;;;;;0.40;0.30;;;17.00;99.90;;;;;;5098281;28;20372;-78
2021/06/29 01:53:51;;;;;;;0.40;0.20;;;16.80;99.90;;;;;;5112761;28;20856;-77
2021/06/29 01:56:20;;;;;;;0.40;0.30;;;17.20;99.90;;;;;;5110747;28;20397;-77
2021/06/29 01:58:52;;;;;;;0.40;0.30;;;16.90;99.90;;;;;;5092948;28;20699;-78
2021/06/29 02:01:19;;;;;;;0.40;0.20;;;16.90;99.90;;;;;;5076232;28;20469;-78
2021/06/29 02:03:45;;;;;;;0.40;0.20;;;17.20;99.90;;;;;;5097600;28;20391;-78
2021/06/29 02:06:11;;;;;;;0.40;0.30;;;17.00;99.90;;;;;;5113718;28;20808;-77
2021/06/29 02:08:37;;;;;;;0.40;0.20;;;16.80;99.90;;;;;;5097135;28;20394;-78
2021/06/29 02:11:03;;;;;;;0.40;0.20;;;;;;;;;;5077829;28;20390;-78
2021/06/29 02:13:29;;;;;;;0.40;0.20;;;17.30;99.90;;;;;;5093773;28;20432;-77
2021/06/29 02:15:55;;;;;;;0.40;0.20;;;;;;;;;;5105578;28;20393;-78
2021/06/29 02:18:22;;;;;;;0.40;0.20;;;;;;;;;;5111703;28;20429;-78
2021/06/29 02:20:49;;;;;;;0.40;0.20;;;;;;;;;;5092588;28;20854;-78
2021/06/29 02:23:15;;;;;;;0.40;0.30;;;17.10;99.90;;;;;;5107866;28;20384;-78
2021/06/29 02:25:41;;;;;;;0.40;0.30;;;;;;;;;;5112456;28;20400;-78
2021/06/29 02:28:07;;;;;;;0.40;0.20;;;17.10;99.90;;;;;;5094844;28;20400;-78
2021/06/29 02:30:33;;;;;;;0.40;0.20;;;;;;;;;;5113368;28;20384;-79
2021/06/29 02:32:59;;;;;;;0.40;0.30;;;;;;;;;;5084842;28;20378;-78
2021/06/29 02:35:25;;;;;;;0.40;0.20;;;17.00;99.90;;;;;;5077770;28;20453;-78
2021/06/29 02:37:52;;;;;;;0.40;0.30;;;;;;;;;;5111837;28;20385;-78
2021/06/29 02:40:18;;;;;;;0.40;0.20;;;;;;;;;;5101476;28;20394;-78
2021/06/29 02:42:44;;;;;;;0.40;0.30;;;;;;;;;;5092109;28;20857;-78
2021/06/29 02:45:11;;;;;;;0.40;0.20;;;;;;;;;;5111624;28;20388;-78
2021/06/29 02:47:39;;;;;;;0.40;0.20;;;;;;;;;;5112349;28;20392;-78
2021/06/29 02:50:08;;;;;;;0.40;0.30;;;16.60;99.90;;;;;;5113109;28;20368;-77
2021/06/29 02:52:35;;;;;;;0.40;0.20;;;16.60;99.90;;;;;;5097733;28;20409;-78
2021/06/29 02:55:02;;;;;;;0.40;0.20;;;16.60;99.90;;;;;;5088923;28;20384;-78
2021/06/29 02:57:27;;;;;;;0.40;0.20;;;16.90;99.90;;;;;;5084934;28;20406;-78
2021/06/29 02:59:54;;;;;;;0.40;0.20;;;17.00;99.90;;;;;;5095594;28;20398;-78
2021/06/29 03:02:19;;;;;;;0.40;0.20;;;16.30;99.90;;;;;;5112794;28;20453;-77
2021/06/29 03:04:45;;;;;;;0.40;0.30;;;16.50;99.90;;;;;;5080132;28;20870;-78
2021/06/29 03:07:11;;;;;;;0.40;0.20;;;17.00;99.90;;;;;;5092112;28;20406;-78
2021/06/29 03:09:36;;;;;;;0.40;0.20;;;17.00;99.90;;;;;;5112347;28;20396;-78
2021/06/29 03:12:03;;;;;;;0.40;0.20;;;16.60;99.90;;;;;;5094155;28;20728;-78
2021/06/29 03:14:28;;;;;;;0.40;0.20;;;16.70;99.90;;;;;;5093673;28;20408;-77
2021/06/29 03:16:54;;;;;;;0.40;0.20;;;16.50;99.90;;;;;;5111814;28;21361;-78
2021/06/29 03:19:20;;;;;;;0.40;0.20;;;16.60;99.90;;;;;;5078729;28;20746;-78
2021/06/29 03:21:46;;;;;;;0.40;0.30;;;16.50;99.90;;;;;;5099181;28;20887;-77
2021/06/29 03:24:12;;;;;;;0.40;0.20;;;16.60;99.90;;;;;;5112473;28;20837;-78
2021/06/29 03:26:38;;;;;;;0.40;0.20;;;16.70;99.90;;;;;;5094287;28;20584;-79
2021/06/29 03:29:04;;;;;;;0.40;0.20;;;16.00;99.90;;;;;;5103385;28;20903;-78
2021/06/29 03:31:33;;;;;;;0.40;0.20;;;16.50;99.90;;;;;;5108267;28;20401;-78
2021/06/29 03:33:59;;;;;;;0.40;0.20;;;17.20;99.90;;;;;;5090782;28;20462;-77
2021/06/29 03:36:24;;;;;;;0.40;0.20;;;16.50;99.90;;;;;;5110301;28;20828;-78
2021/06/29 03:38:50;;;;;;;0.40;0.20;;;16.70;99.90;;;;;;5111370;28;20852;-78
2021/06/29 03:41:16;;;;;;;0.40;0.20;;;16.30;99.90;;;;;;5111793;28;20465;-78
2021/06/29 03:43:42;;;;;;;0.40;0.20;;;16.40;99.90;;;;;;5077312;28;20421;-78
2021/06/29 03:46:07;;;;;;;0.40;0.20;;;16.30;99.90;;;;;;5094698;28;20392;-77
2021/06/29 03:48:34;;;;;;;0.40;0.20;;;16.20;99.90;;;;;;5111960;28;20663;-77
2021/06/29 03:51:00;;;;;;;0.40;0.20;;;16.50;99.90;;;;;;5100654;28;20874;-78
2021/06/29 03:53:26;;;;;;;0.40;0.20;;;16.40;99.90;;;;;;5110829;28;20376;-77
2021/06/29 03:55:52;;;;;;;0.40;0.20;;;;;;;;;;5093748;28;20411;-78
2021/06/29 03:58:18;;;;;;;0.40;0.20;;;16.10;99.90;;;;;;5092809;28;20874;-78
2021/06/29 04:00:45;;;;;;;0.40;0.20;;;16.30;99.90;;;;;;5087014;28;20413;-78
2021/06/29 04:03:10;;;;;;;0.40;0.20;;;16.50;99.90;;;;;;5087398;28;20385;-77
2021/06/29 04:05:36;;;;;;;0.40;0.20;;;;;;;;;;5087281;28;20747;-77
2021/06/29 04:08:02;;;;;;;0.40;0.30;;;16.30;99.90;;;;;;5087900;28;20404;-77
2021/06/29 04:10:28;;;;;;;0.40;0.20;;;16.30;99.90;;;;;;5090216;28;20380;-78
2021/06/29 04:12:53;;;;;;;0.40;0.30;;;16.30;99.90;;;;;;5070820;28;20803;-78
2021/06/29 04:15:19;;;;;;;0.40;0.20;;;16.40;99.90;;;;;;5087998;28;20386;-78
2021/06/29 04:17:45;;;;;;;0.40;0.20;;;16.40;99.90;;;;;;5087648;28;20511;-78
2021/06/29 04:20:11;;;;;;;0.40;0.20;;;16.50;99.90;;;;;;5086885;28;20376;-77
2021/06/29 04:22:37;;;;;;;0.40;0.20;;;16.40;99.90;;;;;;5086381;28;20398;-78
2021/06/29 04:25:04;;;;;;;0.40;0.30;;;16.40;99.90;;;;;;5088368;28;20960;-78
2021/06/29 04:27:30;;;;;;;0.40;0.20;;;16.30;99.90;;;;;;5085796;28;20448;-78
2021/06/29 04:29:56;;;;;;;0.40;0.30;;;16.40;99.90;;;;;;5087423;28;20484;-77
2021/06/29 04:32:22;;;;;;;0.40;0.20;;;16.40;99.90;;;;;;5086771;28;20428;-77
2021/06/29 04:34:48;;;;;;;0.40;0.20;;;16.40;99.90;;;;;;5087058;28;20396;-77
2021/06/29 04:37:14;;;;;;;0.40;0.20;;;16.40;99.90;;;;;;5084968;28;20426;-77
2021/06/29 04:39:41;;;;;;;0.40;0.20;;;16.30;99.90;;;;;;5069036;28;20423;-77
2021/06/29 04:42:07;;;;;;;0.40;0.20;;;16.40;99.90;;;;;;5086469;28;20397;-77
2021/06/29 04:44:37;;;;;;;0.40;0.20;;;16.50;99.90;;;;;;5087312;28;20900;-77
2021/06/29 04:47:03;;;;;;;0.40;0.20;;;15.90;99.90;;;;;;5066886;28;21025;-77
2021/06/29 04:49:29;;;;;;;0.40;0.20;;;16.60;99.90;;;;;;5088164;28;20486;-78
2021/06/29 04:51:55;;;;;;;0.40;0.20;;;16.60;99.90;;;;;;5087477;28;20488;-77
2021/06/29 04:54:20;;;;;;;0.40;0.20;;;16.50;99.90;;;;;;5091107;28;20435;-77
2021/06/29 04:56:46;;;;;;;0.40;0.20;;;16.50;99.90;;;;;;5093023;28;20393;-78
2021/06/29 04:59:11;;;;;;;0.40;0.20;;;16.40;99.90;;;;;;5107860;28;20738;-78
2021/06/29 05:01:37;;;;;;;0.40;0.20;;;16.50;99.90;;;;;;5106110;28;20413;-77
2021/06/29 05:04:03;;;;;;;0.40;0.20;;;16.50;99.90;;;;;;5091027;28;20374;-77
2021/06/29 05:06:29;;;;;;;0.40;0.30;;;16.50;99.90;;;;;;5093729;28;20486;-77
2021/06/29 05:08:54;;;;;;;0.40;0.30;;;16.50;99.90;;;;;;5103950;28;20392;-77
2021/06/29 05:11:20;;;;;;;0.40;0.20;;;16.50;99.90;;;;;;5098845;28;20460;-77
2021/06/29 05:13:45;;;;;;;0.40;0.20;;;16.50;99.90;;;;;;5096337;28;20378;-78
2021/06/29 05:16:11;;;;;;;0.40;0.20;;;16.40;99.90;;;;;;5108150;28;20380;-77
2021/06/29 05:18:37;;;;;;;0.40;0.30;;;16.60;99.90;;;;;;5095610;28;20382;-77
2021/06/29 05:21:03;;;;;;;0.40;0.20;;;16.50;99.90;;;;;;5099933;28;20380;-78
2021/06/29 05:23:28;;;;;;;0.40;0.20;;;16.40;99.90;;;;;;5095446;28;20518;-77
2021/06/29 05:25:54;;;;;;;0.40;0.20;;;16.40;99.90;;;;;;5102862;28;20470;-77
2021/06/29 05:28:22;;;;;;;0.40;0.20;;;16.40;99.90;;;;;;5094111;28;20494;-78
2021/06/29 05:30:48;;;;;;;0.40;0.20;;;16.40;99.90;;;;;;5093981;28;20382;-78
2021/06/29 05:33:15;;;;;;;0.40;0.30;;;16.50;99.90;;;;;;5108418;28;20477;-78
2021/06/29 05:35:41;;;;;;;0.40;0.20;;;16.50;99.90;;;;;;5112251;28;20384;-77
2021/06/29 05:38:07;;;;;;;0.40;0.20;;;16.50;99.90;;;;;;5093478;28;20394;-77
2021/06/29 05:40:34;;;;;;;0.40;0.20;;;16.50;99.90;;;;;;5108486;28;20431;-77
2021/06/29 05:43:00;;;;;;;0.40;0.20;;;16.50;99.90;;;;;;5105046;28;20889;-77
2021/06/29 05:45:25;;;;;;;0.40;0.30;;;16.60;99.90;;;;;;5094105;28;20393;-76
2021/06/29 05:47:52;;;;;;;0.40;0.20;;;16.80;99.90;;;;;;5108976;28;20406;-77
2021/06/29 05:50:18;;;;;;;0.40;0.20;;;16.80;99.90;;;;;;5114160;28;20933;-76
2021/06/29 05:52:45;;;;;;;0.40;0.20;;;16.80;99.90;;;;;;5099082;28;20389;-77
2021/06/29 05:55:11;;;;;;;0.40;0.20;;;16.90;99.90;;;;;;5075465;28;20374;-77
2021/06/29 05:57:37;;;;;;;0.40;0.20;;;16.90;99.90;;;;;;5108172;28;20388;-77
2021/06/29 06:00:09;;;;;;;0.40;0.20;;;17.00;99.90;;;;;;5111847;28;20398;-77
2021/06/29 06:02:34;;;;;;;0.40;0.20;;;17.00;99.90;;;;;;5093626;28;20421;-77
2021/06/29 06:05:00;;;;;;;0.40;0.20;;;17.10;99.90;;;;;;5104711;28;20428;-77
2021/06/29 06:07:26;;;;;;;0.40;0.30;;;17.20;99.90;;;;;;5105544;28;20761;-77
2021/06/29 06:09:51;;;;;;;0.40;0.20;;;17.20;99.90;;;;;;5075157;28;20378;-78
2021/06/29 06:12:17;;;;;;;0.40;0.20;;;17.20;99.90;;;;;;5107515;28;20418;-76
2021/06/29 06:14:43;;;;;;;0.40;0.20;;;17.20;99.90;;;;;;5106654;28;20382;-76
2021/06/29 06:17:08;;;;;;;0.40;0.20;;;17.30;99.90;;;;;;5074693;28;20390;-76
2021/06/29 06:19:34;;;;;;;0.40;0.20;;;17.40;99.90;;;;;;5092978;28;20394;-76
2021/06/29 06:22:00;;;;;;;0.40;0.22;;;17.50;99.90;;;;;;5097296;28;20433;-75
2021/06/29 06:24:25;;;;;;;0.40;0.20;;;17.60;99.90;;;;;;5113915;28;20380;-75
2021/06/29 06:26:51;;;;;;;0.40;0.20;;;17.60;99.90;;;;;;5098919;28;20878;-76
2021/06/29 06:29:17;;;;;;;0.40;0.30;;;17.70;99.90;;;;;;5095908;28;20964;-76
2021/06/29 06:31:43;;;;;;;0.40;0.20;;;17.80;99.90;;;;;;5113812;28;20840;-75
2021/06/29 06:34:09;;;;;;;0.40;0.20;;;18.00;99.90;;;;;;5078077;28;21011;-75
2021/06/29 06:36:35;;;;;;;0.40;0.20;;;18.00;99.90;;;;;;5102687;28;20396;-75
2021/06/29 06:39:01;;;;;;;0.40;0.30;;;18.10;99.90;;;;;;5112766;28;20418;-76
2021/06/29 06:41:26;;;;;;;0.40;0.20;;;18.10;99.90;;;;;;5095334;28;20386;-75
2021/06/29 06:43:52;;;;;;;0.40;0.20;;;18.40;99.90;;;;;;5100567;28;20463;-76
2021/06/29 06:46:18;;;;;;;0.40;0.20;;;18.40;99.90;;;;;;5113437;28;20836;-75
2021/06/29 06:48:43;;;;;;;0.40;0.30;;;18.50;99.90;;;;;;5097196;28;20457;-75
2021/06/29 06:51:10;;;;;;;0.40;0.20;;;18.50;99.90;;;;;;5081713;28;20543;-75
2021/06/29 06:53:36;;;;;;;0.40;0.20;;;18.60;99.90;;;;;;5092792;28;20758;-75
2021/06/29 06:56:02;;;;;;;0.40;0.20;;;18.80;99.90;;;;;;5091957;28;20378;-75
2021/06/29 06:58:28;;;;;;;0.40;0.20;;;18.80;99.90;;;;;;5092850;28;20382;-75
2021/06/29 07:00:54;;;;;;;0.40;0.20;;;18.90;99.90;;;;;;5097236;28;20395;-76
2021/06/29 07:03:21;;;;;;;0.40;0.20;;;19.00;99.90;;;;;;5094874;28;20376;-75
2021/06/29 07:05:47;;;;;;;0.40;0.20;;;19.00;99.90;;;;;;5096106;28;20398;-75
2021/06/29 07:08:13;;;;;;;0.40;0.20;;;19.00;99.90;;;;;;5101614;28;20474;-75
2021/06/29 07:10:39;;;;;;;0.40;0.20;;;19.10;99.90;;;;;;5113029;28;20825;-76
2021/06/29 07:13:04;;;;;;;0.40;0.20;;;19.10;99.90;;;;;;5094090;28;20389;-75
2021/06/29 07:15:30;;;;;;;0.40;0.30;;;19.10;99.90;;;;;;5080003;28;20392;-76
2021/06/29 07:17:56;;;;;;;0.40;0.20;;;19.20;99.90;;;;;;5112233;28;20384;-75
2021/06/29 07:20:23;;;;;;;0.40;0.20;;;19.30;99.90;;;;;;5112688;28;20733;-75
2021/06/29 07:22:48;;;;;;;0.40;0.20;;;19.50;99.90;;;;;;5106244;28;20389;-74
2021/06/29 07:25:14;;;;;;;0.40;0.20;;;19.60;99.90;;;;;;5112126;28;20891;-75
2021/06/29 07:27:40;;;;;;;0.40;0.20;;;19.50;99.90;;;;;;5092499;28;20449;-75
2021/06/29 07:30:08;;;;;;;0.40;0.30;;;19.70;99.90;;;;;;5085199;28;20384;-75
2021/06/29 07:32:33;;;;;;;0.40;0.30;;;19.60;99.90;;;;;;5093303;28;20472;-75
2021/06/29 07:35:00;;;;;;;0.40;0.30;;;19.70;99.90;;;;;;5073052;28;20859;-78
2021/06/29 07:37:25;;;;;;;0.40;0.30;;;19.70;99.90;;;;;;5089813;28;20401;-76
2021/06/29 07:39:51;;;;;;;0.40;0.30;;;19.80;99.90;;;;;;5107617;28;20382;-79
2021/06/29 07:42:17;;;;;;;0.40;0.30;;;19.80;99.90;;;;;;5091854;28;20453;-76
2021/06/29 07:44:42;;;;;;;0.40;0.20;;;20.00;99.90;;;;;;5110679;28;20388;-77
2021/06/29 07:47:08;;;;;;;0.40;0.20;;;20.20;99.90;;;;;;5098081;28;20532;-78
2021/06/29 07:49:34;;;;;;;0.40;0.30;;;20.20;99.90;;;;;;5092283;28;20750;-77
2021/06/29 07:52:00;;;;;;;0.40;0.20;;;20.20;99.90;;;;;;5102205;28;20534;-77
2021/06/29 07:54:26;;;;;;;0.40;0.20;;;20.20;99.90;;;;;;5091690;28;20390;-76
2021/06/29 07:56:51;;;;;;;0.40;0.30;;;20.30;99.90;;;;;;5091632;28;20386;-79
2021/06/29 07:59:17;;;;;;;0.40;0.20;;;20.40;99.90;;;;;;5091070;28;20374;-78
2021/06/29 08:01:43;;;;;;;0.40;0.20;;;20.70;99.90;;;;;;5109104;28;20402;-76
2021/06/29 08:04:08;;;;;;;0.40;0.20;;;20.70;99.90;;;;;;5104246;28;20386;-77
2021/06/29 08:06:34;;;;;;;0.40;0.20;;;20.80;99.90;;;;;;5091231;28;20812;-76
2021/06/29 08:08:59;;;;;;;0.40;0.20;;;21.10;99.90;;;;;;5108994;28;20887;-77
2021/06/29 08:11:25;;;;;;;0.40;0.20;;;21.20;99.90;;;;;;5104987;28;20451;-78
2021/06/29 08:13:51;;;;;;;0.40;0.30;;;21.40;99.90;;;;;;5073368;28;20401;-77
2021/06/29 08:16:17;;;;;;;0.40;0.20;;;21.40;99.90;;;;;;5072564;28;20386;-77
2021/06/29 08:18:42;;;;;;;0.40;0.30;;;21.70;99.90;;;;;;5073017;28;20386;-76
2021/06/29 08:21:09;;;;;;;0.40;0.20;;;21.80;99.90;;;;;;5091200;28;20386;-77
2021/06/29 08:23:35;;;;;;;0.40;0.30;;;21.80;99.90;;;;;;5111560;28;20389;-77
2021/06/29 08:26:02;;;;;;;0.40;0.30;;;21.70;99.90;;;;;;5108865;28;20540;-77
2021/06/29 08:28:28;;;;;;;0.40;0.20;;;21.80;99.90;;;;;;5091437;28;20753;-77
2021/06/29 08:30:54;;;;;;;0.40;0.20;;;21.60;99.90;;;;;;5092386;28;20403;-79
2021/06/29 08:33:22;;;;;;;0.40;0.30;;;21.40;99.90;;;;;;5089889;28;20395;-79
2021/06/29 08:35:49;;;;;;;0.40;0.20;;;21.40;99.90;;;;;;5088512;28;20469;-79
2021/06/29 08:38:15;;;;;;;0.40;0.30;;;21.40;99.90;;;;;;5086686;28;20394;-78
2021/06/29 08:40:42;;;;;;;0.40;0.30;;;21.40;99.90;;;;;;5084845;28;20381;-78
2021/06/29 08:43:09;;;;;;;0.40;0.20;;;21.70;99.90;;;;;;5087631;28;20924;-79
2021/06/29 08:45:35;;;;;;;0.40;0.30;;;21.80;99.90;;;;;;5069138;28;20401;-77
2021/06/29 08:48:01;;;;;;;0.40;0.20;;;21.80;99.90;;;;;;5087778;28;20450;-77
2021/06/29 08:50:31;;;;;;;0.40;0.30;;;21.80;99.90;;;;;;5084631;28;20508;-77
2021/06/29 08:53:02;;;;;;;0.40;0.30;;;21.80;99.90;;;;;;5069498;28;20401;-79
2021/06/29 08:55:48;;;;;;;0.40;0.20;;;21.60;99.90;;;;;;5069436;28;20390;-78
2021/06/29 08:58:22;;;;;;;0.40;0.30;;;21.50;99.90;;;;;;5085812;28;20410;-78
2021/06/29 09:00:48;;;;;;;0.40;0.20;;;21.40;99.90;;;;;;5065809;28;20428;-78
2021/06/29 09:03:14;;;;;;;0.40;0.30;;;21.40;99.90;;;;;;5088291;28;20397;-78
2021/06/29 09:05:48;;;;;;;0.40;0.30;;;21.50;99.90;;;;;;5086954;28;20404;-78
2021/06/29 09:08:17;;;;;;;0.40;0.30;;;21.70;99.90;;;;;;5085989;28;20958;-77
2021/06/29 09:11:02;;;;;;;0.40;0.30;;;21.80;99.90;;;;;;5084360;28;20411;-79
2021/06/29 09:13:28;;;;;;;0.40;0.30;;;21.70;99.90;;;;;;5088449;28;20441;-79
2021/06/29 09:15:54;;;;;;;0.40;0.20;;;21.80;99.90;;;;;;5087012;28;20390;-77
2021/06/29 09:18:25;;;;;;;0.40;0.20;;;22.10;99.90;;;;;;5085751;28;20478;-77
2021/06/29 09:20:50;;;;;;;0.40;0.20;;;22.10;99.90;;;;;;5085459;28;20392;-77
2021/06/29 09:23:25;;;;;;;0.40;0.30;;;22.20;99.90;;;;;;5067655;28;20729;-77
2021/06/29 09:26:06;;;;;;;0.40;0.20;;;22.40;99.90;;;;;;5087345;28;20421;-79
2021/06/29 09:28:38;;;;;;;0.40;0.20;;;22.20;99.90;;;;;;5087186;28;20475;-78
2021/06/29 09:31:14;;;;;;;0.40;0.20;;;22.20;99.90;;;;;;5083777;28;20389;-79
2021/06/29 09:33:45;;;;;;;0.40;0.30;;;22.10;99.90;;;;;;5086985;28;20420;-78
2021/06/29 09:36:21;;;;;;;0.40;0.22;;;21.80;99.90;;;;;;5086567;28;20402;-78
2021/06/29 09:38:47;;;;;;;0.40;0.20;;;21.60;99.90;;;;;;5087347;28;20405;-77
2021/06/29 09:41:19;;;;;;;0.40;0.20;;;21.50;99.90;;;;;;5085426;28;20404;-80
2021/06/29 09:43:47;;;;;;;0.40;0.30;;;21.70;99.90;;;;;;5084615;28;20397;-78
2021/06/29 09:46:15;;;;;;;0.40;0.30;;;21.70;99.90;;;;;;5067771;28;20528;-79
2021/06/29 09:48:46;;;;;;;0.40;0.20;;;21.60;99.90;;;;;;5087438;28;21434;-76
2021/06/29 09:51:19;;;;;;;0.40;0.20;;;21.50;99.90;;;;;;5084764;28;20501;-80
2021/06/29 09:53:54;;;;;;;0.40;0.20;;;21.60;99.90;;;;;;5086755;28;20464;-79
2021/06/29 09:56:25;;;;;;;0.40;0.20;;;21.80;99.90;;;;;;5087088;28;20388;-80
2021/06/29 09:58:54;;;;;;;0.40;0.20;;;21.80;99.90;;;;;;5086309;28;20447;-80
2021/06/29 10:01:22;;;;;;;0.40;0.20;;;21.80;99.90;;;;;;5084453;28;20806;-79
2021/06/29 10:03:53;;;;;;;0.40;0.20;;;21.80;99.90;;;;;;5091633;28;20412;-79
2021/06/29 10:06:21;;;;;;;0.40;0.20;;;21.70;99.90;;;;;;5090308;28;21423;-79
2021/06/29 10:08:52;;;;;;;0.40;0.20;;;21.70;99.90;;;;;;5091126;28;20412;-78
2021/06/29 10:11:19;;;;;;;0.40;0.20;;;21.80;99.90;;;;;;5086604;28;20430;-78
2021/06/29 10:13:46;;;;;;;0.40;0.20;;;21.60;99.90;;;;;;5071355;28;20398;-79
2021/06/29 10:16:13;;;;;;;0.40;0.20;;;21.60;99.90;;;;;;5070520;28;20741;-78
2021/06/29 10:21:42;;;;;;;0.40;0.27;;;21.40;99.90;;;;;;5022880;28;20395;-79
2021/06/29 10:24:10;;;;;;;0.40;0.20;;;21.10;99.90;;;;;;5088939;28;20475;-78
2021/06/29 10:26:39;;;;;;;0.40;0.20;;;21.00;99.90;;;;;;5089323;28;20453;-78
2021/06/29 10:29:08;;;;;;;0.40;0.20;;;20.90;99.90;;;;;;5088630;28;20398;-79
2021/06/29 10:31:36;;;;;;;0.40;0.30;;;20.80;99.90;;;;;;5087199;28;20384;-79
2021/06/29 10:34:09;;;;;;;0.40;0.20;;;20.80;99.90;;;;;;5089010;28;20386;-82
2021/06/29 10:36:40;;;;;;;0.40;0.20;;;20.70;99.90;;;;;;5073306;28;20407;-81
2021/06/29 10:39:11;;;;;;;0.40;0.30;;;20.70;99.90;;;;;;5089975;28;20392;-77
2021/06/29 10:41:41;;;;;;;0.40;0.30;;;20.60;99.90;;;;;;5089055;28;20419;-78
2021/06/29 10:44:16;;;;;;;0.40;0.30;;;20.50;99.90;;;;;;5091301;28;20394;-77
2021/06/29 10:47:00;;;;;;;0.40;0.20;;;20.60;99.90;;;;;;5089875;28;20420;-77
2021/06/29 10:49:36;;;;;;;0.40;0.30;;;20.40;99.90;;;;;;5090279;28;20495;-80
2021/06/29 10:52:25;;;;;;;0.40;0.20;;;20.40;99.90;;;;;;5069387;28;20397;-81
2021/06/29 10:54:55;;;;;;;0.40;0.20;;;19.90;99.90;;;;;;5087245;28;20397;-83
2021/06/29 10:57:26;;;;;;;0.40;0.30;;;19.20;99.90;;;;;;5088284;28;20449;-81
2021/06/29 10:59:55;;;;;;;0.40;0.20;;;18.50;99.90;;;;;;5091880;28;20381;-78
2021/06/29 11:02:31;;;;;;;0.40;0.25;;;18.20;99.90;;;;;;5076861;27;20687;-80
2021/06/29 11:04:59;;;;;;;0.40;0.20;;;15.10;99.90;;;;;;5075963;27;20446;-84
2021/06/29 11:07:34;;;;;;;0.40;0.20;;;14.60;99.90;;;;;;5111529;28;20418;-82
2021/06/29 11:10:01;;;;;;;0.40;0.30;;;14.50;99.90;;;;;;5111435;28;20459;-84
2021/06/29 11:12:46;;;;;;;0.40;0.20;;;14.60;99.90;;;;;;5093501;28;20442;-81
2021/06/29 11:15:13;;;;;;;0.40;0.20;;;14.60;99.90;;;;;;5106090;28;20396;-84
2021/06/29 11:17:48;;;;;;;0.40;0.20;;;14.80;99.90;;;;;;5079627;28;20433;-85
2021/06/29 11:20:18;;;;;;;0.40;0.20;;;14.80;99.90;;;;;;5072759;28;20957;-83
2021/06/29 11:22:50;;;;;;;0.40;0.20;;;14.90;99.90;;;;;;5091933;28;20389;-83
2021/06/29 11:25:42;;;;;;;0.40;0.20;;;15.10;99.90;;;;;;5095632;28;20404;-81
2021/06/29 11:28:17;;;;;;;0.40;0.20;;;15.10;99.90;;;;;;5089744;28;20416;-81
2021/06/29 11:31:10;;;;;;;0.40;0.20;;;15.20;99.90;;;;;;5084547;28;20479;-83
2021/06/29 11:33:45;;;;;;;0.40;0.30;;;15.20;99.90;;;;;;5067129;28;20920;-83
2021/06/29 11:36:26;;;;;;;0.40;0.20;;;15.00;99.90;;;;;;5080587;28;20752;-84
2021/06/29 11:38:56;;;;;;;0.40;0.30;;;15.20;99.90;;;;;;5091455;28;20402;-83
2021/06/29 11:41:24;;;;;;;0.40;0.30;;;15.30;99.90;;;;;;5072340;28;20382;-83
2021/06/29 11:43:51;;;;;;;0.40;0.20;;;14.90;99.90;;;;;;5108092;28;20396;-83
2021/06/29 11:46:54;;;;;;;0.40;0.20;;;15.10;99.90;;;;;;5102680;28;20398;-83
2021/06/29 11:49:40;;;;;;;0.40;0.20;;;15.00;99.90;;;;;;5092815;28;20401;-86
2021/06/29 11:52:19;;;;;;;0.40;0.20;;;14.80;99.90;;;;;;5101768;28;20386;-84
2021/06/29 11:55:08;;;;;;;0.40;0.30;;;14.60;99.90;;;;;;5110274;28;20427;-85
2021/06/29 11:57:41;;;;;;;0.40;0.30;;;14.40;99.90;;;;;;5080017;28;20477;-87
2021/06/29 12:00:32;;;;;;;0.40;0.20;;;14.40;99.90;;;;;;5099302;28;20384;-84
2021/06/29 12:03:10;;;;;;;0.40;0.30;;;14.50;99.90;;;;;;5087923;28;20394;-88
2021/06/29 12:05:37;;;;;;;0.40;0.30;;;14.40;99.90;;;;;;5073000;28;20489;-88
2021/06/29 12:08:06;;;;;;;0.40;0.20;;;14.40;99.90;;;;;;5088775;28;20892;-87
2021/06/29 12:10:36;;;;;;;0.40;0.20;;;14.50;99.90;;;;;;5103014;28;20393;-88
2021/06/29 12:13:15;;;;;;;0.40;0.20;;;14.50;99.90;;;;;;5072830;28;20394;-85
2021/06/29 12:15:45;;;;;;;0.40;0.30;;;14.60;99.90;;;;;;5111665;28;20384;-88
2021/06/29 12:18:17;;;;;;;0.40;0.30;;;14.50;99.90;;;;;;5080127;28;20733;-88
2021/06/29 12:20:49;;;;;;;0.40;0.30;;;14.50;99.90;;;;;;5096034;28;20941;-85
2021/06/29 12:23:17;;;;;;;0.40;0.30;;;14.40;99.90;;;;;;5104254;28;20403;-79
2021/06/29 12:25:46;;;;;;;0.40;0.20;;;14.50;99.90;;;;;;5105732;28;20411;-78
2021/06/29 12:28:14;;;;;;;0.40;0.20;;;14.40;99.90;;;;;;5097927;28;20400;-78
2021/06/29 12:30:44;;;;;;;0.40;0.30;;;14.60;99.90;;;;;;5094468;28;20543;-83
2021/06/29 12:33:19;;;;;;;0.40;0.20;;;14.50;99.90;;;;;;5100912;28;20402;-81
2021/06/29 12:35:48;;;;;;;0.40;0.20;;;14.50;99.90;;;;;;5098451;28;20480;-81
2021/06/29 12:38:25;;;;;;;0.40;0.30;;;14.40;99.90;;;;;;5106376;28;20384;-82
2021/06/29 12:41:00;;;;;;;0.40;0.30;;;14.30;99.90;;;;;;5099681;28;20380;-82
2021/06/29 12:43:31;;;;;;;0.40;0.20;;;14.50;99.90;;;;;;5084469;28;20394;-82
2021/06/29 12:45:57;;;;;;;0.40;0.20;;;14.50;99.90;;;;;;5087860;28;20385;-86
2021/06/29 12:48:23;;;;;;;0.40;0.20;;;14.40;99.90;;;;;;5087016;28;20416;-82
2021/06/29 12:51:04;;;;;;;0.40;0.20;;;14.40;99.90;;;;;;5086819;28;20497;-84
2021/06/29 12:53:31;;;;;;;0.40;0.30;;;14.30;99.90;;;;;;5085842;28;20914;-86
2021/06/29 12:56:17;;;;;;;0.40;0.30;;;14.20;99.90;;;;;;5088025;28;20838;-84
2021/06/29 12:58:45;;;;;;;0.40;0.30;;;14.10;99.90;;;;;;5088603;28;20388;-85
2021/06/29 13:01:12;;;;;;;0.40;0.30;;;14.30;99.90;;;;;;5069591;28;20409;-85